Aeroporto :
LOGIN :

Iscrizione | Disclaimer

   EN    FR    IT 

 










Sommario :    VFR   VFR Marginale   IFR   IFR Intensivo   IFR Molto Intensivo
Visibilità : 
Base nubi : 
>= 8 km
>= 3000ft
5 / 8 km
1000 / 3000 ft
1500m / 5 km
500 / 1000 ft
800 / 1500m
200 / 500 ft
< 800m
< 200 ft
Simboli :   Temporali  Nebbia  Neve Forte  Precipitazioni Forti  Vento > 20 kt
SIGMETs :   Varie  Temporali  Ghiacco  Turbolenza  Onda orograficha  Ceneri Vulcaniche







- Altitudine del aeroporto : 1276 ft
- Codice IATA : STR


EDDS - Stuttgart

ULTIMO METAR :
  • 191650Z 35006KT 280V030 CAVOK 24/14 Q1016 NOSIG

METARs OBSOLETI :
  • 191620Z 32008KT 280V010 CAVOK 25/14 Q1016 NOSIG
  • 191550Z 33009KT 300V360 CAVOK 25/13 Q1016 NOSIG
  • 191520Z 31010KT CAVOK 25/13 Q1016 NOSIG
  • 191450Z 31011KT 290V350 CAVOK 26/13 Q1016 NOSIG
  • 191420Z VRB05KT CAVOK 27/12 Q1016 NOSIG

TAF TAF EDDS
Valido dal 19 a 12 ore il 20 a 12 ore UTC


191100Z 1912/2012 26004KT 9999 FEW040
BECMG 1912/1914 33005KT
BECMG 1919/1921 VRB03KT
BECMG 2007/2009 19007KT
Nessun NOTAM noto per questo aeroporto.



MetMap, La meteo Aeronautica in un colpo d'occhio ! - Copyright ORBIFLY Dicembre 2007 - Disclaimer

ORBIFLY MET'MAP TEAM :

Programmazione e sviluppo : Alexandra Zaïnal
Concezione e sviluppo : Baudouin d'Aumeries
Co-Programmazione e sviluppo : Marc-Olivier Méhu
Supporto tecnico e logistico : Manuel Goepfert
Aiuto per la traduzione : Arnaldo La Scala

Contatto : metmap@orbifly.com




FONTI E CREDITI :

   NOAA